sensor_id;sensor_type;location;lat;lon;timestamp;temperature;humidity
19279;DHT22;9773;47.062;15.446;2023-01-29T00:02:18;1.80;99.90
19279;DHT22;9773;47.062;15.446;2023-01-29T00:04:44;1.80;99.90
19279;DHT22;9773;47.062;15.446;2023-01-29T00:07:10;1.80;99.90
19279;DHT22;9773;47.062;15.446;2023-01-29T00:09:35;1.70;99.90
19279;DHT22;9773;47.062;15.446;2023-01-29T00:12:01;1.70;99.90
19279;DHT22;9773;47.062;15.446;2023-01-29T00:14:27;1.70;99.90
19279;DHT22;9773;47.062;15.446;2023-01-29T00:16:53;1.70;99.90
19279;DHT22;9773;47.062;15.446;2023-01-29T00:19:19;1.70;99.90
19279;DHT22;9773;47.062;15.446;2023-01-29T00:21:45;1.70;99.90
19279;DHT22;9773;47.062;15.446;2023-01-29T00:24:11;1.70;99.90
19279;DHT22;9773;47.062;15.446;2023-01-29T00:26:37;1.70;99.90
19279;DHT22;9773;47.062;15.446;2023-01-29T00:29:05;1.80;99.90
19279;DHT22;9773;47.062;15.446;2023-01-29T00:31:30;1.80;99.90
19279;DHT22;9773;47.062;15.446;2023-01-29T00:33:57;1.80;99.90
19279;DHT22;9773;47.062;15.446;2023-01-29T00:36:23;1.90;99.90
19279;DHT22;9773;47.062;15.446;2023-01-29T00:38:57;1.80;99.90
19279;DHT22;9773;47.062;15.446;2023-01-29T00:41:26;1.80;99.90
19279;DHT22;9773;47.062;15.446;2023-01-29T00:44:10;1.80;99.90
19279;DHT22;9773;47.062;15.446;2023-01-29T00:46:55;1.80;99.90
19279;DHT22;9773;47.062;15.446;2023-01-29T00:49:20;1.80;99.90
19279;DHT22;9773;47.062;15.446;2023-01-29T00:51:46;1.70;99.90
19279;DHT22;9773;47.062;15.446;2023-01-29T00:54:32;1.80;99.90
19279;DHT22;9773;47.062;15.446;2023-01-29T00:56:57;1.70;99.90
19279;DHT22;9773;47.062;15.446;2023-01-29T00:59:23;1.70;99.90
19279;DHT22;9773;47.062;15.446;2023-01-29T01:01:49;1.70;99.90
19279;DHT22;9773;47.062;15.446;2023-01-29T01:04:33;1.60;99.90
19279;DHT22;9773;47.062;15.446;2023-01-29T01:06:59;1.60;99.90
19279;DHT22;9773;47.062;15.446;2023-01-29T01:09:25;1.70;99.90
19279;DHT22;9773;47.062;15.446;2023-01-29T01:12:09;1.70;99.90
19279;DHT22;9773;47.062;15.446;2023-01-29T01:14:35;1.80;99.90
19279;DHT22;9773;47.062;15.446;2023-01-29T01:17:01;1.70;99.90
19279;DHT22;9773;47.062;15.446;2023-01-29T01:19:27;1.70;99.90
19279;DHT22;9773;47.062;15.446;2023-01-29T01:21:53;1.70;99.90
19279;DHT22;9773;47.062;15.446;2023-01-29T01:24:18;1.70;99.90
19279;DHT22;9773;47.062;15.446;2023-01-29T01:26:45;1.70;99.90
19279;DHT22;9773;47.062;15.446;2023-01-29T01:29:11;1.60;99.90
19279;DHT22;9773;47.062;15.446;2023-01-29T01:31:37;1.70;99.90
19279;DHT22;9773;47.062;15.446;2023-01-29T01:34:03;1.70;99.90
19279;DHT22;9773;47.062;15.446;2023-01-29T01:36:29;1.70;99.90
19279;DHT22;9773;47.062;15.446;2023-01-29T01:38:57;1.70;99.90
19279;DHT22;9773;47.062;15.446;2023-01-29T01:41:23;1.70;99.90
19279;DHT22;9773;47.062;15.446;2023-01-29T01:43:57;1.80;99.90
19279;DHT22;9773;47.062;15.446;2023-01-29T01:46:29;1.70;99.90
19279;DHT22;9773;47.062;15.446;2023-01-29T01:49:08;1.70;99.90
19279;DHT22;9773;47.062;15.446;2023-01-29T01:51:39;1.80;99.90
19279;DHT22;9773;47.062;15.446;2023-01-29T01:54:09;1.70;99.90
19279;DHT22;9773;47.062;15.446;2023-01-29T01:56:40;1.70;99.90
19279;DHT22;9773;47.062;15.446;2023-01-29T01:59:09;1.70;99.90
19279;DHT22;9773;47.062;15.446;2023-01-29T02:01:36;1.70;99.90
19279;DHT22;9773;47.062;15.446;2023-01-29T02:04:08;1.70;99.90
19279;DHT22;9773;47.062;15.446;2023-01-29T02:06:55;1.80;99.90
19279;DHT22;9773;47.062;15.446;2023-01-29T02:09:45;1.80;99.90
19279;DHT22;9773;47.062;15.446;2023-01-29T02:12:15;1.70;99.90
19279;DHT22;9773;47.062;15.446;2023-01-29T02:14:41;1.70;99.90
19279;DHT22;9773;47.062;15.446;2023-01-29T02:17:15;1.70;99.90
19279;DHT22;9773;47.062;15.446;2023-01-29T02:33:47;1.70;99.90
19279;DHT22;9773;47.062;15.446;2023-01-29T02:39:22;1.70;99.90
19279;DHT22;9773;47.062;15.446;2023-01-29T02:44:23;1.70;99.90
19279;DHT22;9773;47.062;15.446;2023-01-29T02:47:00;1.70;99.90
19279;DHT22;9773;47.062;15.446;2023-01-29T02:49:40;1.60;99.90
19279;DHT22;9773;47.062;15.446;2023-01-29T02:52:16;1.70;99.90
19279;DHT22;9773;47.062;15.446;2023-01-29T02:54:49;1.60;99.90
19279;DHT22;9773;47.062;15.446;2023-01-29T02:57:24;1.60;99.90
19279;DHT22;9773;47.062;15.446;2023-01-29T03:00:18;1.60;99.90
19279;DHT22;9773;47.062;15.446;2023-01-29T03:05:50;1.60;99.90
19279;DHT22;9773;47.062;15.446;2023-01-29T03:08:20;1.60;99.90
19279;DHT22;9773;47.062;15.446;2023-01-29T03:10:54;1.60;99.90
19279;DHT22;9773;47.062;15.446;2023-01-29T03:13:40;1.60;99.90
19279;DHT22;9773;47.062;15.446;2023-01-29T03:16:37;1.70;99.90
19279;DHT22;9773;47.062;15.446;2023-01-29T03:19:27;1.70;99.90
19279;DHT22;9773;47.062;15.446;2023-01-29T03:21:57;1.60;99.90
19279;DHT22;9773;47.062;15.446;2023-01-29T03:27:19;1.50;99.90
19279;DHT22;9773;47.062;15.446;2023-01-29T03:30:05;1.50;99.90
19279;DHT22;9773;47.062;15.446;2023-01-29T03:32:53;1.50;99.90
19279;DHT22;9773;47.062;15.446;2023-01-29T03:35:22;1.50;99.90
19279;DHT22;9773;47.062;15.446;2023-01-29T03:38:00;1.50;99.90
19279;DHT22;9773;47.062;15.446;2023-01-29T03:40:28;1.50;99.90
19279;DHT22;9773;47.062;15.446;2023-01-29T03:48:39;1.60;99.90
19279;DHT22;9773;47.062;15.446;2023-01-29T03:53:52;1.60;99.90
19279;DHT22;9773;47.062;15.446;2023-01-29T03:56:26;1.50;99.90
19279;DHT22;9773;47.062;15.446;2023-01-29T04:01:32;1.50;99.90
19279;DHT22;9773;47.062;15.446;2023-01-29T04:04:15;1.50;99.90
19279;DHT22;9773;47.062;15.446;2023-01-29T04:06:44;1.50;99.90
19279;DHT22;9773;47.062;15.446;2023-01-29T04:09:17;1.50;99.90
19279;DHT22;9773;47.062;15.446;2023-01-29T04:12:00;1.50;99.90
19279;DHT22;9773;47.062;15.446;2023-01-29T04:14:26;1.50;99.90
19279;DHT22;9773;47.062;15.446;2023-01-29T04:16:54;1.50;99.90
19279;DHT22;9773;47.062;15.446;2023-01-29T04:19:22;1.40;99.90
19279;DHT22;9773;47.062;15.446;2023-01-29T04:21:55;1.50;99.90
19279;DHT22;9773;47.062;15.446;2023-01-29T04:24:24;1.50;99.90
19279;DHT22;9773;47.062;15.446;2023-01-29T04:29:49;1.50;99.90
19279;DHT22;9773;47.062;15.446;2023-01-29T04:32:27;1.50;99.90
19279;DHT22;9773;47.062;15.446;2023-01-29T04:35:09;1.50;99.90
19279;DHT22;9773;47.062;15.446;2023-01-29T04:43:25;1.40;99.90
19279;DHT22;9773;47.062;15.446;2023-01-29T04:46:08;1.60;99.90
19279;DHT22;9773;47.062;15.446;2023-01-29T04:48:52;1.60;99.90
19279;DHT22;9773;47.062;15.446;2023-01-29T04:51:30;1.60;99.90
19279;DHT22;9773;47.062;15.446;2023-01-29T04:54:18;1.60;99.90
19279;DHT22;9773;47.062;15.446;2023-01-29T04:56:56;1.50;99.90
19279;DHT22;9773;47.062;15.446;2023-01-29T04:59:41;1.50;99.90
19279;DHT22;9773;47.062;15.446;2023-01-29T05:02:10;1.50;99.90
19279;DHT22;9773;47.062;15.446;2023-01-29T05:04:39;1.50;99.90
19279;DHT22;9773;47.062;15.446;2023-01-29T05:07:09;1.40;99.90
19279;DHT22;9773;47.062;15.446;2023-01-29T05:09:36;1.40;99.90
19279;DHT22;9773;47.062;15.446;2023-01-29T05:12:04;1.40;99.90
19279;DHT22;9773;47.062;15.446;2023-01-29T05:14:33;1.40;99.90
19279;DHT22;9773;47.062;15.446;2023-01-29T05:17:03;1.40;99.90
19279;DHT22;9773;47.062;15.446;2023-01-29T05:19:32;1.40;99.90
19279;DHT22;9773;47.062;15.446;2023-01-29T05:21:58;1.40;99.90
19279;DHT22;9773;47.062;15.446;2023-01-29T05:24:25;1.50;99.90
19279;DHT22;9773;47.062;15.446;2023-01-29T05:26:52;1.50;99.90
19279;DHT22;9773;47.062;15.446;2023-01-29T05:29:39;1.40;99.90
19279;DHT22;9773;47.062;15.446;2023-01-29T05:32:07;1.40;99.90
19279;DHT22;9773;47.062;15.446;2023-01-29T05:34:33;1.40;99.90
19279;DHT22;9773;47.062;15.446;2023-01-29T05:36:59;1.30;99.90
19279;DHT22;9773;47.062;15.446;2023-01-29T05:39:25;1.30;99.90
19279;DHT22;9773;47.062;15.446;2023-01-29T05:41:50;1.30;99.90
19279;DHT22;9773;47.062;15.446;2023-01-29T05:44:16;1.40;99.90
19279;DHT22;9773;47.062;15.446;2023-01-29T05:46:42;1.30;99.90
19279;DHT22;9773;47.062;15.446;2023-01-29T05:49:08;1.30;99.90
19279;DHT22;9773;47.062;15.446;2023-01-29T05:51:34;1.20;99.90
19279;DHT22;9773;47.062;15.446;2023-01-29T05:54:00;1.10;99.90
19279;DHT22;9773;47.062;15.446;2023-01-29T05:56:25;1.10;99.90
19279;DHT22;9773;47.062;15.446;2023-01-29T05:58:51;1.10;99.90
19279;DHT22;9773;47.062;15.446;2023-01-29T06:01:20;1.10;99.90
19279;DHT22;9773;47.062;15.446;2023-01-29T06:03:46;1.20;99.90
19279;DHT22;9773;47.062;15.446;2023-01-29T06:06:12;1.20;99.90
19279;DHT22;9773;47.062;15.446;2023-01-29T06:08:39;1.20;99.90
19279;DHT22;9773;47.062;15.446;2023-01-29T06:11:07;1.20;99.90
19279;DHT22;9773;47.062;15.446;2023-01-29T06:13:33;1.20;99.90
19279;DHT22;9773;47.062;15.446;2023-01-29T06:15:59;1.10;99.90
19279;DHT22;9773;47.062;15.446;2023-01-29T06:18:24;1.10;99.90
19279;DHT22;9773;47.062;15.446;2023-01-29T06:20:50;1.10;99.90
19279;DHT22;9773;47.062;15.446;2023-01-29T06:23:16;1.10;99.90
19279;DHT22;9773;47.062;15.446;2023-01-29T06:25:42;1.10;99.90
19279;DHT22;9773;47.062;15.446;2023-01-29T06:28:07;1.10;99.90
19279;DHT22;9773;47.062;15.446;2023-01-29T06:30:33;1.10;99.90
19279;DHT22;9773;47.062;15.446;2023-01-29T06:32:59;1.00;99.90
19279;DHT22;9773;47.062;15.446;2023-01-29T06:35:28;1.00;99.90
19279;DHT22;9773;47.062;15.446;2023-01-29T06:37:55;1.00;99.90
19279;DHT22;9773;47.062;15.446;2023-01-29T06:40:21;1.10;99.90
19279;DHT22;9773;47.062;15.446;2023-01-29T06:42:46;1.20;99.90
19279;DHT22;9773;47.062;15.446;2023-01-29T06:45:12;1.20;99.90
19279;DHT22;9773;47.062;15.446;2023-01-29T06:47:38;1.20;99.90
19279;DHT22;9773;47.062;15.446;2023-01-29T06:50:04;1.20;99.90
19279;DHT22;9773;47.062;15.446;2023-01-29T06:52:30;1.10;99.90
19279;DHT22;9773;47.062;15.446;2023-01-29T06:54:56;1.10;99.90
19279;DHT22;9773;47.062;15.446;2023-01-29T06:57:22;1.10;99.90
19279;DHT22;9773;47.062;15.446;2023-01-29T06:59:47;1.00;99.90
19279;DHT22;9773;47.062;15.446;2023-01-29T07:02:14;1.00;99.90
19279;DHT22;9773;47.062;15.446;2023-01-29T07:04:39;1.10;99.90
19279;DHT22;9773;47.062;15.446;2023-01-29T07:07:07;1.10;99.90
19279;DHT22;9773;47.062;15.446;2023-01-29T07:09:39;1.10;99.90
19279;DHT22;9773;47.062;15.446;2023-01-29T07:12:05;1.10;99.90
19279;DHT22;9773;47.062;15.446;2023-01-29T07:14:31;1.20;99.90
19279;DHT22;9773;47.062;15.446;2023-01-29T07:16:56;1.20;99.90
19279;DHT22;9773;47.062;15.446;2023-01-29T07:19:22;1.30;99.90
19279;DHT22;9773;47.062;15.446;2023-01-29T07:21:48;1.30;99.90
19279;DHT22;9773;47.062;15.446;2023-01-29T07:24:14;1.40;99.90
19279;DHT22;9773;47.062;15.446;2023-01-29T07:26:40;1.30;99.90
19279;DHT22;9773;47.062;15.446;2023-01-29T07:29:06;1.40;99.90
19279;DHT22;9773;47.062;15.446;2023-01-29T07:31:32;1.40;99.90
19279;DHT22;9773;47.062;15.446;2023-01-29T07:33:58;1.40;99.90
19279;DHT22;9773;47.062;15.446;2023-01-29T07:36:24;1.50;99.90
19279;DHT22;9773;47.062;15.446;2023-01-29T07:38:50;1.60;99.90
19279;DHT22;9773;47.062;15.446;2023-01-29T07:41:16;1.60;99.90
19279;DHT22;9773;47.062;15.446;2023-01-29T07:43:42;1.70;99.90
19279;DHT22;9773;47.062;15.446;2023-01-29T07:46:08;1.70;99.90
19279;DHT22;9773;47.062;15.446;2023-01-29T07:48:34;1.70;99.90
19279;DHT22;9773;47.062;15.446;2023-01-29T07:51:00;1.70;99.90
19279;DHT22;9773;47.062;15.446;2023-01-29T07:53:27;1.70;99.90
19279;DHT22;9773;47.062;15.446;2023-01-29T07:55:53;1.70;99.90
19279;DHT22;9773;47.062;15.446;2023-01-29T07:58:19;1.80;99.90
19279;DHT22;9773;47.062;15.446;2023-01-29T08:00:45;1.80;99.90
19279;DHT22;9773;47.062;15.446;2023-01-29T08:03:16;1.80;99.90
19279;DHT22;9773;47.062;15.446;2023-01-29T08:05:46;1.90;99.90
19279;DHT22;9773;47.062;15.446;2023-01-29T08:08:13;1.90;99.90
19279;DHT22;9773;47.062;15.446;2023-01-29T08:10:39;2.00;99.90
19279;DHT22;9773;47.062;15.446;2023-01-29T08:13:06;2.10;99.90
19279;DHT22;9773;47.062;15.446;2023-01-29T08:15:32;2.10;99.90
19279;DHT22;9773;47.062;15.446;2023-01-29T08:18:00;2.20;99.90
19279;DHT22;9773;47.062;15.446;2023-01-29T08:20:26;2.30;99.90
19279;DHT22;9773;47.062;15.446;2023-01-29T08:23:18;2.30;99.90
19279;DHT22;9773;47.062;15.446;2023-01-29T08:25:43;2.30;99.90
19279;DHT22;9773;47.062;15.446;2023-01-29T08:28:09;2.30;99.90
19279;DHT22;9773;47.062;15.446;2023-01-29T08:30:36;2.30;99.90
19279;DHT22;9773;47.062;15.446;2023-01-29T08:33:03;2.40;99.90
19279;DHT22;9773;47.062;15.446;2023-01-29T08:35:29;2.50;99.90
19279;DHT22;9773;47.062;15.446;2023-01-29T08:37:59;2.60;99.90
19279;DHT22;9773;47.062;15.446;2023-01-29T08:40:27;2.60;99.90
19279;DHT22;9773;47.062;15.446;2023-01-29T08:43:00;2.60;99.90
19279;DHT22;9773;47.062;15.446;2023-01-29T08:45:26;2.60;99.90
19279;DHT22;9773;47.062;15.446;2023-01-29T08:47:52;2.70;99.90
19279;DHT22;9773;47.062;15.446;2023-01-29T08:50:18;2.60;99.90
19279;DHT22;9773;47.062;15.446;2023-01-29T08:52:44;2.70;99.90
19279;DHT22;9773;47.062;15.446;2023-01-29T08:55:10;2.80;99.90
19279;DHT22;9773;47.062;15.446;2023-01-29T08:57:37;2.90;99.90
19279;DHT22;9773;47.062;15.446;2023-01-29T09:00:04;3.00;99.90
19279;DHT22;9773;47.062;15.446;2023-01-29T09:02:30;3.00;99.90
19279;DHT22;9773;47.062;15.446;2023-01-29T09:04:56;3.00;99.90
19279;DHT22;9773;47.062;15.446;2023-01-29T09:07:22;3.00;99.90
19279;DHT22;9773;47.062;15.446;2023-01-29T09:09:47;3.10;99.90
19279;DHT22;9773;47.062;15.446;2023-01-29T09:12:14;3.10;99.90
19279;DHT22;9773;47.062;15.446;2023-01-29T09:14:39;3.10;99.90
19279;DHT22;9773;47.062;15.446;2023-01-29T09:17:05;3.10;99.90
19279;DHT22;9773;47.062;15.446;2023-01-29T09:19:31;3.20;99.90
19279;DHT22;9773;47.062;15.446;2023-01-29T09:21:56;3.40;99.90
19279;DHT22;9773;47.062;15.446;2023-01-29T09:24:22;3.50;99.90
19279;DHT22;9773;47.062;15.446;2023-01-29T09:26:48;3.50;99.90
19279;DHT22;9773;47.062;15.446;2023-01-29T09:29:14;3.40;99.90
19279;DHT22;9773;47.062;15.446;2023-01-29T09:31:39;3.30;99.90
19279;DHT22;9773;47.062;15.446;2023-01-29T09:34:05;3.30;99.90
19279;DHT22;9773;47.062;15.446;2023-01-29T09:36:31;3.30;99.90
19279;DHT22;9773;47.062;15.446;2023-01-29T09:38:56;3.40;99.90
19279;DHT22;9773;47.062;15.446;2023-01-29T09:41:25;3.30;99.90
19279;DHT22;9773;47.062;15.446;2023-01-29T09:44:02;3.40;99.90
19279;DHT22;9773;47.062;15.446;2023-01-29T09:46:41;3.50;99.90
19279;DHT22;9773;47.062;15.446;2023-01-29T09:49:10;3.50;99.90
19279;DHT22;9773;47.062;15.446;2023-01-29T09:51:40;3.50;99.90
19279;DHT22;9773;47.062;15.446;2023-01-29T09:54:15;3.50;99.90
19279;DHT22;9773;47.062;15.446;2023-01-29T09:56:44;3.60;99.90
19279;DHT22;9773;47.062;15.446;2023-01-29T09:59:12;3.70;99.90
19279;DHT22;9773;47.062;15.446;2023-01-29T10:01:58;3.90;99.90
19279;DHT22;9773;47.062;15.446;2023-01-29T10:07:44;4.00;99.90
19279;DHT22;9773;47.062;15.446;2023-01-29T10:10:24;3.90;99.90
19279;DHT22;9773;47.062;15.446;2023-01-29T10:15:50;3.80;99.90
19279;DHT22;9773;47.062;15.446;2023-01-29T10:21:31;3.50;99.90
19279;DHT22;9773;47.062;15.446;2023-01-29T10:26:56;3.10;99.90
19279;DHT22;9773;47.062;15.446;2023-01-29T10:29:24;3.10;99.90
19279;DHT22;9773;47.062;15.446;2023-01-29T10:31:55;3.10;99.90
19279;DHT22;9773;47.062;15.446;2023-01-29T10:36:50;3.30;99.90
19279;DHT22;9773;47.062;15.446;2023-01-29T10:39:20;3.50;99.90
19279;DHT22;9773;47.062;15.446;2023-01-29T10:44:58;3.80;99.90
19279;DHT22;9773;47.062;15.446;2023-01-29T10:47:51;3.90;99.90
19279;DHT22;9773;47.062;15.446;2023-01-29T10:55:57;4.10;99.90
19279;DHT22;9773;47.062;15.446;2023-01-29T10:58:33;4.20;99.90
19279;DHT22;9773;47.062;15.446;2023-01-29T11:01:01;4.20;99.90
19279;DHT22;9773;47.062;15.446;2023-01-29T11:03:29;4.20;99.90
19279;DHT22;9773;47.062;15.446;2023-01-29T11:11:31;4.20;99.90
19279;DHT22;9773;47.062;15.446;2023-01-29T11:14:01;4.10;99.90
19279;DHT22;9773;47.062;15.446;2023-01-29T11:16:41;4.10;99.90
19279;DHT22;9773;47.062;15.446;2023-01-29T11:19:08;4.20;99.90
19279;DHT22;9773;47.062;15.446;2023-01-29T11:21:55;4.20;99.90
19279;DHT22;9773;47.062;15.446;2023-01-29T11:24:22;4.40;99.90
19279;DHT22;9773;47.062;15.446;2023-01-29T11:26:49;4.50;99.90
19279;DHT22;9773;47.062;15.446;2023-01-29T11:29:28;4.60;99.90
19279;DHT22;9773;47.062;15.446;2023-01-29T11:31:57;4.60;99.90
19279;DHT22;9773;47.062;15.446;2023-01-29T11:34:24;4.60;99.90
19279;DHT22;9773;47.062;15.446;2023-01-29T11:37:03;4.60;99.90
19279;DHT22;9773;47.062;15.446;2023-01-29T11:39:30;4.50;99.90
19279;DHT22;9773;47.062;15.446;2023-01-29T11:42:01;4.50;99.90
19279;DHT22;9773;47.062;15.446;2023-01-29T11:49:44;4.40;99.90
19279;DHT22;9773;47.062;15.446;2023-01-29T11:52:13;4.40;99.90
19279;DHT22;9773;47.062;15.446;2023-01-29T11:57:22;4.40;99.90
19279;DHT22;9773;47.062;15.446;2023-01-29T11:59:50;4.50;99.90
19279;DHT22;9773;47.062;15.446;2023-01-29T12:04:52;4.50;99.90
19279;DHT22;9773;47.062;15.446;2023-01-29T12:07:19;4.40;99.90
19279;DHT22;9773;47.062;15.446;2023-01-29T12:09:53;4.30;99.90
19279;DHT22;9773;47.062;15.446;2023-01-29T12:12:28;4.40;99.90
19279;DHT22;9773;47.062;15.446;2023-01-29T12:15:16;4.40;99.90
19279;DHT22;9773;47.062;15.446;2023-01-29T12:17:46;4.40;99.90
19279;DHT22;9773;47.062;15.446;2023-01-29T12:20:24;4.40;99.90
19279;DHT22;9773;47.062;15.446;2023-01-29T12:25:49;4.20;99.90
19279;DHT22;9773;47.062;15.446;2023-01-29T12:28:29;4.10;99.90
19279;DHT22;9773;47.062;15.446;2023-01-29T12:33:51;4.00;99.90
19279;DHT22;9773;47.062;15.446;2023-01-29T12:36:47;4.00;99.90
19279;DHT22;9773;47.062;15.446;2023-01-29T12:39:18;4.10;99.90
19279;DHT22;9773;47.062;15.446;2023-01-29T12:44:57;4.20;99.90
19279;DHT22;9773;47.062;15.446;2023-01-29T12:47:57;4.00;99.90
19279;DHT22;9773;47.062;15.446;2023-01-29T12:50:35;4.00;99.90
19279;DHT22;9773;47.062;15.446;2023-01-29T12:53:14;4.00;99.90
19279;DHT22;9773;47.062;15.446;2023-01-29T12:55:49;3.90;99.90
19279;DHT22;9773;47.062;15.446;2023-01-29T12:58:29;3.90;99.90
19279;DHT22;9773;47.062;15.446;2023-01-29T13:01:02;3.80;99.90
19279;DHT22;9773;47.062;15.446;2023-01-29T13:03:44;3.70;99.90
19279;DHT22;9773;47.062;15.446;2023-01-29T13:06:24;3.60;99.90
19279;DHT22;9773;47.062;15.446;2023-01-29T13:08:57;3.60;99.90
19279;DHT22;9773;47.062;15.446;2023-01-29T13:11:32;3.70;99.90
19279;DHT22;9773;47.062;15.446;2023-01-29T13:14:34;3.70;99.90
19279;DHT22;9773;47.062;15.446;2023-01-29T13:19:45;3.60;99.90
19279;DHT22;9773;47.062;15.446;2023-01-29T13:22:30;3.60;99.90
19279;DHT22;9773;47.062;15.446;2023-01-29T13:24:59;3.30;99.90
19279;DHT22;9773;47.062;15.446;2023-01-29T13:27:30;3.40;99.90
19279;DHT22;9773;47.062;15.446;2023-01-29T13:29:56;3.80;99.90
19279;DHT22;9773;47.062;15.446;2023-01-29T13:32:26;3.70;99.90
19279;DHT22;9773;47.062;15.446;2023-01-29T13:34:56;3.60;99.90
19279;DHT22;9773;47.062;15.446;2023-01-29T13:37:34;3.60;99.90
19279;DHT22;9773;47.062;15.446;2023-01-29T13:40:03;3.60;99.90
19279;DHT22;9773;47.062;15.446;2023-01-29T13:42:59;3.50;99.90
19279;DHT22;9773;47.062;15.446;2023-01-29T13:45:42;3.50;99.90
19279;DHT22;9773;47.062;15.446;2023-01-29T13:50:53;3.40;99.90
19279;DHT22;9773;47.062;15.446;2023-01-29T13:53:40;3.40;99.90
19279;DHT22;9773;47.062;15.446;2023-01-29T13:58:55;3.40;99.90
19279;DHT22;9773;47.062;15.446;2023-01-29T14:06:56;3.10;99.90
19279;DHT22;9773;47.062;15.446;2023-01-29T14:12:02;3.00;99.90
19279;DHT22;9773;47.062;15.446;2023-01-29T14:15:14;3.00;99.90
19279;DHT22;9773;47.062;15.446;2023-01-29T14:20:36;3.20;99.90
19279;DHT22;9773;47.062;15.446;2023-01-29T14:23:04;3.20;99.90
19279;DHT22;9773;47.062;15.446;2023-01-29T14:25:36;3.30;99.90
19279;DHT22;9773;47.062;15.446;2023-01-29T14:28:04;3.20;99.90
19279;DHT22;9773;47.062;15.446;2023-01-29T14:30:38;3.10;99.90
19279;DHT22;9773;47.062;15.446;2023-01-29T14:33:26;3.00;99.90
19279;DHT22;9773;47.062;15.446;2023-01-29T14:35:55;3.00;99.90
19279;DHT22;9773;47.062;15.446;2023-01-29T14:38:24;3.00;99.90
19279;DHT22;9773;47.062;15.446;2023-01-29T14:41:20;3.00;99.90
19279;DHT22;9773;47.062;15.446;2023-01-29T14:43:48;3.00;99.90
19279;DHT22;9773;47.062;15.446;2023-01-29T14:48:58;3.10;99.90
19279;DHT22;9773;47.062;15.446;2023-01-29T14:51:26;2.90;99.90
19279;DHT22;9773;47.062;15.446;2023-01-29T14:56:51;2.80;99.90
19279;DHT22;9773;47.062;15.446;2023-01-29T15:00:00;2.80;99.90
19279;DHT22;9773;47.062;15.446;2023-01-29T15:02:28;2.90;99.90
19279;DHT22;9773;47.062;15.446;2023-01-29T15:05:04;2.90;99.90
19279;DHT22;9773;47.062;15.446;2023-01-29T15:07:46;2.90;99.90
19279;DHT22;9773;47.062;15.446;2023-01-29T15:10:38;2.70;99.90
19279;DHT22;9773;47.062;15.446;2023-01-29T15:13:31;2.70;99.90
19279;DHT22;9773;47.062;15.446;2023-01-29T15:16:15;2.70;99.90
19279;DHT22;9773;47.062;15.446;2023-01-29T15:18:43;2.70;99.90
19279;DHT22;9773;47.062;15.446;2023-01-29T15:21:17;2.70;99.90
19279;DHT22;9773;47.062;15.446;2023-01-29T15:23:44;2.90;99.90
19279;DHT22;9773;47.062;15.446;2023-01-29T15:26:23;3.00;99.90
19279;DHT22;9773;47.062;15.446;2023-01-29T15:29:00;3.00;99.90
19279;DHT22;9773;47.062;15.446;2023-01-29T15:31:27;3.10;99.90
19279;DHT22;9773;47.062;15.446;2023-01-29T15:33:55;3.00;99.90
19279;DHT22;9773;47.062;15.446;2023-01-29T15:36:24;2.80;99.90
19279;DHT22;9773;47.062;15.446;2023-01-29T15:39:14;2.70;99.90
19279;DHT22;9773;47.062;15.446;2023-01-29T15:41:43;2.80;99.90
19279;DHT22;9773;47.062;15.446;2023-01-29T15:44:14;2.80;99.90
19279;DHT22;9773;47.062;15.446;2023-01-29T15:46:55;2.70;99.90
19279;DHT22;9773;47.062;15.446;2023-01-29T15:49:40;2.50;99.90
19279;DHT22;9773;47.062;15.446;2023-01-29T15:52:14;2.40;99.90
19279;DHT22;9773;47.062;15.446;2023-01-29T15:54:42;2.30;99.90
19279;DHT22;9773;47.062;15.446;2023-01-29T15:57:25;2.30;99.90
19279;DHT22;9773;47.062;15.446;2023-01-29T15:59:56;2.40;99.90
19279;DHT22;9773;47.062;15.446;2023-01-29T16:02:37;2.30;99.90
19279;DHT22;9773;47.062;15.446;2023-01-29T16:05:13;2.30;99.90
19279;DHT22;9773;47.062;15.446;2023-01-29T16:07:40;2.20;99.90
19279;DHT22;9773;47.062;15.446;2023-01-29T16:10:13;2.10;99.90
19279;DHT22;9773;47.062;15.446;2023-01-29T16:12:41;2.10;99.90
19279;DHT22;9773;47.062;15.446;2023-01-29T16:15:16;2.00;99.90
19279;DHT22;9773;47.062;15.446;2023-01-29T16:17:45;2.00;99.90
19279;DHT22;9773;47.062;15.446;2023-01-29T16:20:32;2.00;99.90
19279;DHT22;9773;47.062;15.446;2023-01-29T16:22:59;2.20;99.90
19279;DHT22;9773;47.062;15.446;2023-01-29T16:25:28;2.10;99.90
19279;DHT22;9773;47.062;15.446;2023-01-29T16:27:55;2.10;99.90
19279;DHT22;9773;47.062;15.446;2023-01-29T16:30:25;2.00;99.90
19279;DHT22;9773;47.062;15.446;2023-01-29T16:32:52;2.00;99.90
19279;DHT22;9773;47.062;15.446;2023-01-29T16:35:25;1.90;99.90
19279;DHT22;9773;47.062;15.446;2023-01-29T16:37:51;2.00;99.90
19279;DHT22;9773;47.062;15.446;2023-01-29T16:40:30;2.10;99.90
19279;DHT22;9773;47.062;15.446;2023-01-29T16:45:42;2.00;99.90
19279;DHT22;9773;47.062;15.446;2023-01-29T16:48:30;2.00;99.90
19279;DHT22;9773;47.062;15.446;2023-01-29T16:51:51;2.00;99.90
19279;DHT22;9773;47.062;15.446;2023-01-29T16:53:57;1.90;99.90
19279;DHT22;9773;47.062;15.446;2023-01-29T16:56:29;1.90;99.90
19279;DHT22;9773;47.062;15.446;2023-01-29T16:58:55;1.90;99.90
19279;DHT22;9773;47.062;15.446;2023-01-29T17:01:23;2.00;99.90
19279;DHT22;9773;47.062;15.446;2023-01-29T17:04:03;1.90;99.90
19279;DHT22;9773;47.062;15.446;2023-01-29T17:06:32;1.80;99.90
19279;DHT22;9773;47.062;15.446;2023-01-29T17:08:59;1.80;99.90
19279;DHT22;9773;47.062;15.446;2023-01-29T17:11:32;1.90;99.90
19279;DHT22;9773;47.062;15.446;2023-01-29T17:14:01;1.90;99.90
19279;DHT22;9773;47.062;15.446;2023-01-29T17:16:31;1.80;99.90
19279;DHT22;9773;47.062;15.446;2023-01-29T17:18:58;1.80;99.90
19279;DHT22;9773;47.062;15.446;2023-01-29T17:21:25;1.70;99.90
19279;DHT22;9773;47.062;15.446;2023-01-29T17:23:51;1.80;99.90
19279;DHT22;9773;47.062;15.446;2023-01-29T17:26:18;1.90;99.90
19279;DHT22;9773;47.062;15.446;2023-01-29T17:28:45;1.80;99.90
19279;DHT22;9773;47.062;15.446;2023-01-29T17:31:13;1.80;99.90
19279;DHT22;9773;47.062;15.446;2023-01-29T17:33:41;1.90;99.90
19279;DHT22;9773;47.062;15.446;2023-01-29T17:36:16;1.90;99.90
19279;DHT22;9773;47.062;15.446;2023-01-29T17:38:43;1.90;99.90
19279;DHT22;9773;47.062;15.446;2023-01-29T17:41:24;1.90;99.90
19279;DHT22;9773;47.062;15.446;2023-01-29T17:43:52;1.80;99.90
19279;DHT22;9773;47.062;15.446;2023-01-29T17:46:18;1.70;99.90
19279;DHT22;9773;47.062;15.446;2023-01-29T17:48:47;1.70;99.90
19279;DHT22;9773;47.062;15.446;2023-01-29T17:51:15;1.60;99.90
19279;DHT22;9773;47.062;15.446;2023-01-29T17:53:43;1.50;99.90
19279;DHT22;9773;47.062;15.446;2023-01-29T17:56:27;1.50;99.90
19279;DHT22;9773;47.062;15.446;2023-01-29T17:58:55;1.40;99.90
19279;DHT22;9773;47.062;15.446;2023-01-29T18:01:21;1.50;99.90
19279;DHT22;9773;47.062;15.446;2023-01-29T18:03:47;1.40;99.90
19279;DHT22;9773;47.062;15.446;2023-01-29T18:06:24;1.30;99.90
19279;DHT22;9773;47.062;15.446;2023-01-29T18:08:52;1.20;99.90
19279;DHT22;9773;47.062;15.446;2023-01-29T18:11:18;1.20;99.90
19279;DHT22;9773;47.062;15.446;2023-01-29T18:13:45;1.20;99.90